createdAt,value
2022-10-30T00:02:24.513Z,91.30
2022-10-30T00:04:51.303Z,91.40
2022-10-30T00:07:18.029Z,91.40
2022-10-30T00:09:44.712Z,91.40
2022-10-30T00:12:11.434Z,91.40
2022-10-30T00:14:38.117Z,91.40
2022-10-30T00:17:04.844Z,91.40
2022-10-30T00:19:31.669Z,91.50
2022-10-30T00:24:24.724Z,91.40
2022-10-30T00:26:51.398Z,91.40
2022-10-30T00:29:18.102Z,91.40
2022-10-30T00:31:44.825Z,91.40
2022-10-30T00:34:11.546Z,91.40
2022-10-30T00:36:38.259Z,91.40
2022-10-30T00:39:06.239Z,91.40
2022-10-30T00:41:33.113Z,91.50
2022-10-30T00:43:59.864Z,91.50
2022-10-30T00:46:39.364Z,91.40
2022-10-30T00:49:19.750Z,91.40
2022-10-30T00:51:51.786Z,91.60
2022-10-30T00:54:19.721Z,91.60
2022-10-30T00:56:47.979Z,91.60
2022-10-30T00:59:22.430Z,91.70
2022-10-30T01:01:49.414Z,91.70
2022-10-30T01:04:17.758Z,91.70
2022-10-30T01:06:48.452Z,91.60
2022-10-30T01:09:15.981Z,91.60
2022-10-30T01:11:42.746Z,91.60
2022-10-30T01:14:11.116Z,91.50
2022-10-30T01:16:44.472Z,91.50
2022-10-30T01:19:36.036Z,91.50
2022-10-30T01:22:21.181Z,91.60
2022-10-30T01:24:54.024Z,91.60
2022-10-30T01:27:44.453Z,91.60
2022-10-30T01:30:29.873Z,91.50
2022-10-30T01:33:20.595Z,91.50
2022-10-30T01:35:59.513Z,91.50
2022-10-30T01:38:36.682Z,91.40
2022-10-30T01:41:03.413Z,91.50
2022-10-30T01:43:31.205Z,91.50
2022-10-30T01:46:19.122Z,91.50
2022-10-30T01:49:04.362Z,91.50
2022-10-30T01:51:45.136Z,91.50
2022-10-30T01:54:14.834Z,91.50
2022-10-30T01:57:02.903Z,91.50
2022-10-30T01:59:48.044Z,91.50
2022-10-30T02:02:14.958Z,91.50
2022-10-30T02:04:42.089Z,91.50
2022-10-30T02:07:09.816Z,91.60
2022-10-30T02:09:36.571Z,91.60
2022-10-30T02:12:03.775Z,91.60
2022-10-30T02:14:43.655Z,91.50
2022-10-30T02:17:11.977Z,91.40
2022-10-30T02:19:39.373Z,91.40
2022-10-30T02:22:06.320Z,91.40
2022-10-30T02:24:34.536Z,91.40
2022-10-30T02:27:01.342Z,91.40
2022-10-30T02:29:28.167Z,91.40
2022-10-30T02:31:54.893Z,91.40
2022-10-30T02:34:21.682Z,91.30
2022-10-30T02:36:48.500Z,91.30
2022-10-30T02:39:15.301Z,91.30
2022-10-30T02:41:42.104Z,91.40
2022-10-30T02:44:08.835Z,91.30
2022-10-30T02:46:35.638Z,91.40
2022-10-30T02:49:02.829Z,91.40
2022-10-30T02:51:31.962Z,91.40
2022-10-30T02:54:00.167Z,91.40
2022-10-30T02:56:27.017Z,91.40
2022-10-30T02:58:55.683Z,91.40
2022-10-30T03:01:22.535Z,91.40
2022-10-30T03:03:49.374Z,91.40
2022-10-30T03:06:18.660Z,91.30
2022-10-30T03:08:45.776Z,91.30
2022-10-30T03:11:15.551Z,91.20
2022-10-30T03:13:43.951Z,91.30
2022-10-30T03:16:13.337Z,91.30
2022-10-30T03:18:40.516Z,91.40
2022-10-30T03:21:09.619Z,91.40
2022-10-30T03:23:36.374Z,91.30
2022-10-30T03:26:04.354Z,91.20
2022-10-30T03:28:32.424Z,91.20
2022-10-30T03:31:03.723Z,91.30
2022-10-30T03:33:31.382Z,91.30
2022-10-30T03:35:58.254Z,91.40
2022-10-30T03:38:25.098Z,91.30
2022-10-30T03:40:52.015Z,91.30
2022-10-30T03:43:19.330Z,91.30
2022-10-30T03:45:48.437Z,91.20
2022-10-30T03:48:15.666Z,91.20
2022-10-30T03:50:42.427Z,91.20
2022-10-30T03:53:09.525Z,91.30
2022-10-30T03:55:36.252Z,91.30
2022-10-30T03:58:03.425Z,91.40
2022-10-30T04:00:30.326Z,91.30
2022-10-30T04:02:57.828Z,91.30
2022-10-30T04:05:25.856Z,91.30
2022-10-30T04:08:03.257Z,91.40
2022-10-30T04:10:30.068Z,91.40
2022-10-30T04:13:01.417Z,91.30
2022-10-30T04:15:28.230Z,91.30
2022-10-30T04:17:55.330Z,91.30
2022-10-30T04:20:24.097Z,91.30
2022-10-30T04:22:57.008Z,91.30
2022-10-30T04:25:24.263Z,91.30
2022-10-30T04:27:53.061Z,91.30
2022-10-30T04:30:25.097Z,91.30
2022-10-30T04:32:54.593Z,91.30
2022-10-30T04:35:24.345Z,91.30
2022-10-30T04:38:01.724Z,91.40
2022-10-30T04:40:31.185Z,91.40
2022-10-30T04:42:58.770Z,91.30
2022-10-30T04:45:26.182Z,91.30
2022-10-30T04:47:53.191Z,91.30
2022-10-30T04:50:19.901Z,91.40
2022-10-30T04:52:46.622Z,91.40
2022-10-30T04:55:13.379Z,91.40
2022-10-30T04:57:40.110Z,91.30
2022-10-30T05:00:08.398Z,91.30
2022-10-30T05:02:39.111Z,91.30
2022-10-30T05:05:06.198Z,91.30
2022-10-30T05:07:32.933Z,91.30
2022-10-30T05:09:59.638Z,91.30
2022-10-30T05:12:26.391Z,91.30
2022-10-30T05:14:53.063Z,91.30
2022-10-30T05:17:19.850Z,91.30
2022-10-30T05:19:46.625Z,91.30
2022-10-30T05:22:13.350Z,91.40
2022-10-30T05:24:40.102Z,91.30
2022-10-30T05:27:06.801Z,91.30
2022-10-30T05:29:33.487Z,91.40
2022-10-30T05:32:00.236Z,91.40
2022-10-30T05:34:27.012Z,91.40
2022-10-30T05:36:53.728Z,91.40
2022-10-30T05:39:20.443Z,91.40
2022-10-30T05:41:47.148Z,91.40
2022-10-30T05:44:13.886Z,91.30
2022-10-30T05:46:40.841Z,91.30
2022-10-30T05:49:07.606Z,91.30
2022-10-30T05:51:38.018Z,91.30
2022-10-30T05:54:07.263Z,91.30
2022-10-30T05:56:33.979Z,91.30
2022-10-30T05:59:00.687Z,91.30
2022-10-30T06:01:27.569Z,91.40
2022-10-30T06:03:54.378Z,91.40
2022-10-30T06:06:21.164Z,91.40
2022-10-30T06:08:47.862Z,91.40
2022-10-30T06:11:14.611Z,91.40
2022-10-30T06:13:41.465Z,91.40
2022-10-30T06:16:08.408Z,91.40
2022-10-30T06:18:35.135Z,91.40
2022-10-30T06:21:01.885Z,91.40
2022-10-30T06:23:28.616Z,91.40
2022-10-30T06:25:55.302Z,91.30
2022-10-30T06:28:22.046Z,91.30
2022-10-30T06:30:48.902Z,91.40
2022-10-30T06:33:15.662Z,91.40
2022-10-30T06:35:42.365Z,91.30
2022-10-30T06:38:11.922Z,91.30
2022-10-30T06:40:38.634Z,91.30
2022-10-30T06:43:05.421Z,91.30
2022-10-30T06:45:32.188Z,91.40
2022-10-30T06:48:00.490Z,91.40
2022-10-30T06:50:27.684Z,91.40
2022-10-30T06:52:55.652Z,91.40
2022-10-30T06:55:22.471Z,91.40
2022-10-30T06:57:57.635Z,91.40
2022-10-30T07:00:24.888Z,91.40
2022-10-30T07:03:02.713Z,91.40
2022-10-30T07:05:29.905Z,91.40
2022-10-30T07:07:57.735Z,91.40
2022-10-30T07:10:24.668Z,91.40
2022-10-30T07:12:53.290Z,91.50
2022-10-30T07:15:20.138Z,91.50
2022-10-30T07:18:01.402Z,91.50
2022-10-30T07:20:30.335Z,91.50
2022-10-30T07:22:57.106Z,91.60
2022-10-30T07:25:24.079Z,91.60
2022-10-30T07:27:52.339Z,91.60
2022-10-30T07:30:21.541Z,91.70
2022-10-30T07:33:04.039Z,91.70
2022-10-30T07:35:31.987Z,91.70
2022-10-30T07:38:07.181Z,91.80
2022-10-30T07:40:34.491Z,91.80
2022-10-30T07:43:02.963Z,91.80
2022-10-30T07:45:30.482Z,91.80
2022-10-30T07:47:57.792Z,91.80
2022-10-30T07:50:24.857Z,91.80
2022-10-30T07:52:51.578Z,91.80
2022-10-30T07:55:18.305Z,91.90
2022-10-30T07:57:45.101Z,91.90
2022-10-30T08:00:13.985Z,91.90
2022-10-30T08:02:41.566Z,91.90
2022-10-30T08:05:08.944Z,92.00
2022-10-30T08:07:38.935Z,92.00
2022-10-30T08:10:06.482Z,92.00
2022-10-30T08:12:34.272Z,92.00
2022-10-30T08:15:01.571Z,92.10
2022-10-30T08:17:28.678Z,92.10
2022-10-30T08:19:57.094Z,92.20
2022-10-30T08:22:24.149Z,92.00
2022-10-30T08:24:50.886Z,92.10
2022-10-30T08:27:17.645Z,92.20
2022-10-30T08:29:44.411Z,92.20
2022-10-30T08:32:11.134Z,92.20
2022-10-30T08:34:37.866Z,92.20
2022-10-30T08:37:04.759Z,92.10
2022-10-30T08:39:31.429Z,91.80
2022-10-30T08:41:59.747Z,91.30
2022-10-30T08:44:26.730Z,91.50
2022-10-30T08:46:53.422Z,90.40
2022-10-30T08:49:20.274Z,87.10
2022-10-30T08:51:47.032Z,66.40
2022-10-30T08:54:13.759Z,60.20
2022-10-30T08:56:40.472Z,41.00
2022-10-30T08:59:07.204Z,36.10
2022-10-30T09:01:34.069Z,42.50
2022-10-30T09:04:00.869Z,39.60
2022-10-30T09:06:29.995Z,35.00
2022-10-30T09:08:56.679Z,17.30
2022-10-30T09:11:23.404Z,11.80
2022-10-30T09:13:50.089Z,17.30
2022-10-30T09:16:16.791Z,9.90
2022-10-30T09:18:43.507Z,2.30
2022-10-30T09:21:10.647Z,1.10
2022-10-30T09:23:37.415Z,1.00
2022-10-30T09:26:04.140Z,2.20
2022-10-30T09:28:30.845Z,1.00
2022-10-30T09:30:57.525Z,1.00
2022-10-30T09:33:24.287Z,1.00
2022-10-30T09:35:51.025Z,1.00
2022-10-30T09:38:17.781Z,1.00
2022-10-30T09:41:10.463Z,1.00
2022-10-30T09:43:40.235Z,1.00
2022-10-30T09:46:32.096Z,1.00
2022-10-30T09:49:27.175Z,1.00
2022-10-30T09:52:41.198Z,1.00
2022-10-30T09:55:13.499Z,1.00
2022-10-30T09:58:07.224Z,1.00
2022-10-30T10:00:39.201Z,1.00
2022-10-30T10:03:20.540Z,1.00
2022-10-30T10:05:59.490Z,1.00
2022-10-30T10:08:35.082Z,1.00
2022-10-30T10:11:16.700Z,1.00
2022-10-30T10:13:53.742Z,1.00
2022-10-30T10:16:23.669Z,1.00
2022-10-30T10:19:16.389Z,1.00
2022-10-30T10:22:00.571Z,1.00
2022-10-30T10:24:31.083Z,1.00
2022-10-30T10:27:45.285Z,1.00
2022-10-30T10:30:23.283Z,1.00
2022-10-30T10:36:12.986Z,1.00
2022-10-30T10:39:03.607Z,1.00
2022-10-30T10:41:33.175Z,1.00
2022-10-30T10:44:21.149Z,1.00
2022-10-30T10:47:07.397Z,1.00
2022-10-30T10:49:42.027Z,1.00
2022-10-30T10:52:17.572Z,1.00
2022-10-30T10:54:49.898Z,1.00
2022-10-30T10:57:46.506Z,1.00
2022-10-30T11:00:23.189Z,1.00
2022-10-30T11:03:04.143Z,1.00
2022-10-30T11:05:47.288Z,1.00
2022-10-30T11:08:29.014Z,1.00
2022-10-30T11:11:06.798Z,1.00
2022-10-30T11:13:39.393Z,1.00
2022-10-30T11:16:27.022Z,1.00
2022-10-30T11:19:00.937Z,1.00
2022-10-30T11:21:32.494Z,1.00
2022-10-30T11:23:59.230Z,1.00
2022-10-30T11:26:28.442Z,1.00
2022-10-30T11:29:18.569Z,1.00
2022-10-30T11:31:45.718Z,1.00
2022-10-30T11:34:17.928Z,1.00
2022-10-30T11:36:49.693Z,1.00
2022-10-30T11:39:28.261Z,1.00
2022-10-30T11:42:13.741Z,1.00
2022-10-30T11:44:44.986Z,1.00
2022-10-30T11:47:15.576Z,1.00
2022-10-30T11:49:58.985Z,1.00
2022-10-30T11:52:27.224Z,1.00
2022-10-30T11:55:16.161Z,1.00
2022-10-30T11:57:46.221Z,1.00
2022-10-30T12:00:22.958Z,1.00
2022-10-30T12:02:56.333Z,1.00
2022-10-30T12:05:26.150Z,1.00
2022-10-30T12:07:54.066Z,1.00
2022-10-30T12:10:29.083Z,1.00
2022-10-30T12:12:56.888Z,1.00
2022-10-30T12:15:28.010Z,1.00
2022-10-30T12:17:59.914Z,1.00
2022-10-30T12:20:27.407Z,1.00
2022-10-30T12:22:55.405Z,1.00
2022-10-30T12:25:30.253Z,1.00
2022-10-30T12:28:04.666Z,1.00
2022-10-30T12:30:52.365Z,1.00
2022-10-30T12:33:40.771Z,1.00
2022-10-30T12:36:15.696Z,1.00
2022-10-30T12:38:44.902Z,1.00
2022-10-30T12:41:17.118Z,1.00
2022-10-30T12:43:50.067Z,1.00
2022-10-30T12:46:22.565Z,1.00
2022-10-30T12:49:03.068Z,1.00
2022-10-30T12:51:37.959Z,1.00
2022-10-30T12:54:24.660Z,1.00
2022-10-30T12:57:01.429Z,1.00
2022-10-30T12:59:35.692Z,1.00
2022-10-30T13:02:13.304Z,1.00
2022-10-30T13:04:44.787Z,1.00
2022-10-30T13:07:26.474Z,1.00
2022-10-30T13:10:28.412Z,1.00
2022-10-30T13:13:02.069Z,1.00
2022-10-30T13:15:38.189Z,1.00
2022-10-30T13:18:25.218Z,1.00
2022-10-30T13:21:05.941Z,1.00
2022-10-30T13:23:48.588Z,1.00
2022-10-30T13:26:15.251Z,1.00
2022-10-30T13:28:52.385Z,1.00
2022-10-30T13:31:47.222Z,1.00
2022-10-30T13:35:09.457Z,1.00
2022-10-30T13:37:42.101Z,1.00
2022-10-30T13:40:15.873Z,1.00
2022-10-30T13:43:02.254Z,1.00
2022-10-30T13:45:59.811Z,1.00
2022-10-30T13:48:50.369Z,1.00
2022-10-30T13:51:27.815Z,1.00
2022-10-30T13:54:22.187Z,1.00
2022-10-30T13:56:50.431Z,1.00
2022-10-30T13:59:44.303Z,1.00
2022-10-30T14:02:30.169Z,1.00
2022-10-30T14:05:12.872Z,1.00
2022-10-30T14:07:49.786Z,1.00
2022-10-30T14:10:37.354Z,1.00
2022-10-30T14:13:15.235Z,1.00
2022-10-30T14:15:44.255Z,1.00
2022-10-30T14:18:13.789Z,1.00
2022-10-30T14:21:26.748Z,1.00
2022-10-30T14:24:12.504Z,1.00
2022-10-30T14:26:53.128Z,1.00
2022-10-30T14:29:44.318Z,1.00
2022-10-30T14:32:13.976Z,1.00
2022-10-30T14:34:58.277Z,1.00
2022-10-30T14:37:28.093Z,1.00
2022-10-30T14:40:15.872Z,1.00
2022-10-30T14:42:52.439Z,1.00
2022-10-30T14:45:19.143Z,1.00
2022-10-30T14:47:56.437Z,1.00
2022-10-30T14:50:50.066Z,1.00
2022-10-30T14:53:29.775Z,1.00
2022-10-30T14:56:01.916Z,1.00
2022-10-30T14:58:37.191Z,1.00
2022-10-30T15:01:03.960Z,1.00
2022-10-30T15:03:55.656Z,1.00
2022-10-30T15:06:26.260Z,1.00
2022-10-30T15:09:20.259Z,1.00
2022-10-30T15:12:21.451Z,1.00
2022-10-30T15:14:55.249Z,1.00
2022-10-30T15:17:37.601Z,1.00
2022-10-30T15:20:26.732Z,1.00
2022-10-30T15:23:01.279Z,1.00
2022-10-30T15:25:36.118Z,1.00
2022-10-30T15:28:03.788Z,1.00
2022-10-30T15:30:30.741Z,1.00
2022-10-30T15:32:58.019Z,1.00
2022-10-30T15:35:27.082Z,1.00
2022-10-30T15:38:01.779Z,1.00
2022-10-30T15:40:30.038Z,1.00
2022-10-30T15:42:59.398Z,1.00
2022-10-30T15:45:30.241Z,1.00
2022-10-30T15:48:25.099Z,1.00
2022-10-30T15:51:02.740Z,1.00
2022-10-30T15:53:41.255Z,1.00
2022-10-30T15:56:19.965Z,1.00
2022-10-30T15:58:59.603Z,1.00
2022-10-30T16:01:30.499Z,1.00
2022-10-30T16:03:57.663Z,1.00
2022-10-30T16:06:27.451Z,1.00
2022-10-30T16:08:54.218Z,1.00
2022-10-30T16:11:22.721Z,1.00
2022-10-30T16:13:50.044Z,1.00
2022-10-30T16:16:43.848Z,1.00
2022-10-30T16:19:29.097Z,1.00
2022-10-30T16:21:57.881Z,1.00
2022-10-30T16:24:33.040Z,1.00
2022-10-30T16:27:06.314Z,1.00
2022-10-30T16:29:34.968Z,1.00
2022-10-30T16:32:02.162Z,1.00
2022-10-30T16:34:37.230Z,1.00
2022-10-30T16:37:05.925Z,1.00
2022-10-30T16:39:34.080Z,1.00
2022-10-30T16:42:01.531Z,2.00
2022-10-30T16:44:32.367Z,3.60
2022-10-30T16:47:19.294Z,4.80
2022-10-30T16:49:49.647Z,5.10
2022-10-30T16:52:17.409Z,5.40
2022-10-30T16:54:59.590Z,7.00
2022-10-30T16:57:29.866Z,5.90
2022-10-30T16:59:57.497Z,7.10
2022-10-30T17:02:30.629Z,7.30
2022-10-30T17:05:24.099Z,7.40
2022-10-30T17:08:17.722Z,8.90
2022-10-30T17:10:48.431Z,10.90
2022-10-30T17:13:30.212Z,12.00
2022-10-30T17:15:57.304Z,13.60
2022-10-30T17:18:31.417Z,14.40
2022-10-30T17:21:15.878Z,17.00
2022-10-30T17:23:47.741Z,17.70
2022-10-30T17:26:15.285Z,19.40
2022-10-30T17:28:42.929Z,19.70
2022-10-30T17:31:29.803Z,21.30
2022-10-30T17:34:13.398Z,23.90
2022-10-30T17:36:40.728Z,22.60
2022-10-30T17:39:07.674Z,23.20
2022-10-30T17:41:35.436Z,22.30
2022-10-30T17:44:02.514Z,24.10
2022-10-30T17:46:29.376Z,24.80
2022-10-30T17:48:58.953Z,23.10
2022-10-30T17:51:26.499Z,25.00
2022-10-30T17:53:53.523Z,27.70
2022-10-30T17:56:30.327Z,26.60
2022-10-30T17:58:57.206Z,24.90
2022-10-30T18:01:26.186Z,23.70
2022-10-30T18:03:57.825Z,25.10
2022-10-30T18:06:29.256Z,27.60
2022-10-30T18:08:56.023Z,28.00
2022-10-30T18:11:24.712Z,30.50
2022-10-30T18:13:52.602Z,28.60
2022-10-30T18:16:19.689Z,34.30
2022-10-30T18:18:50.165Z,33.30
2022-10-30T18:21:18.840Z,34.90
2022-10-30T18:23:52.272Z,37.30
2022-10-30T18:26:22.311Z,38.60
2022-10-30T18:28:49.520Z,42.00
2022-10-30T18:31:19.035Z,43.20
2022-10-30T18:33:46.497Z,43.20
2022-10-30T18:36:15.753Z,46.90
2022-10-30T18:38:42.636Z,46.70
2022-10-30T18:41:14.397Z,48.40
2022-10-30T18:43:45.601Z,51.30
2022-10-30T18:46:14.255Z,54.70
2022-10-30T18:48:41.406Z,52.60
2022-10-30T18:51:18.991Z,49.90
2022-10-30T18:53:51.766Z,54.20
2022-10-30T18:56:23.805Z,46.30
2022-10-30T18:58:54.962Z,46.80
2022-10-30T19:01:25.958Z,47.10
2022-10-30T19:03:52.936Z,46.90
2022-10-30T19:06:22.307Z,49.50
2022-10-30T19:08:49.419Z,51.00
2022-10-30T19:11:22.186Z,53.80
2022-10-30T19:13:51.838Z,54.50
2022-10-30T19:16:19.805Z,54.30
2022-10-30T19:18:47.406Z,58.70
2022-10-30T19:21:25.784Z,61.90
2022-10-30T19:23:52.799Z,60.10
2022-10-30T19:26:19.528Z,58.80
2022-10-30T19:28:46.469Z,60.30
2022-10-30T19:31:15.048Z,60.20
2022-10-30T19:33:42.254Z,60.40
2022-10-30T19:36:36.293Z,60.00
2022-10-30T19:39:14.282Z,60.90
2022-10-30T19:41:41.422Z,60.30
2022-10-30T19:44:08.606Z,61.70
2022-10-30T19:46:36.194Z,61.00
2022-10-30T19:49:23.499Z,61.60
2022-10-30T19:51:50.203Z,63.00
2022-10-30T19:54:16.965Z,63.70
2022-10-30T19:56:44.194Z,64.00
2022-10-30T19:59:13.793Z,63.90
2022-10-30T20:01:41.725Z,63.80
2022-10-30T20:04:08.906Z,63.50
2022-10-30T20:06:35.734Z,62.70
2022-10-30T20:09:02.621Z,62.40
2022-10-30T20:11:30.086Z,62.60
2022-10-30T20:13:56.809Z,62.00
2022-10-30T20:16:23.583Z,63.00
2022-10-30T20:18:50.871Z,63.20
2022-10-30T20:21:19.245Z,66.00
2022-10-30T20:23:46.093Z,64.50
2022-10-30T20:26:24.057Z,65.80
2022-10-30T20:28:51.001Z,67.50
2022-10-30T20:31:17.738Z,67.70
2022-10-30T20:33:44.516Z,65.70
2022-10-30T20:36:13.275Z,66.70
2022-10-30T20:38:40.276Z,70.00
2022-10-30T20:41:07.488Z,72.50
2022-10-30T20:43:36.736Z,73.20
2022-10-30T20:46:05.747Z,68.20
2022-10-30T20:48:32.939Z,66.80
2022-10-30T20:51:01.208Z,65.20
2022-10-30T20:53:28.732Z,65.30
2022-10-30T20:55:56.115Z,65.50
2022-10-30T20:58:22.825Z,67.40
2022-10-30T21:00:49.864Z,68.60
2022-10-30T21:03:16.932Z,66.80
2022-10-30T21:05:45.697Z,66.20
2022-10-30T21:08:14.195Z,66.60
2022-10-30T21:10:41.701Z,67.10
2022-10-30T21:13:09.767Z,67.20
2022-10-30T21:15:42.615Z,69.30
2022-10-30T21:18:11.011Z,71.70
2022-10-30T21:20:38.199Z,71.30
2022-10-30T21:23:05.763Z,69.10
2022-10-30T21:25:32.914Z,69.40
2022-10-30T21:28:00.225Z,69.60
2022-10-30T21:30:27.549Z,70.40
2022-10-30T21:32:54.367Z,70.80
2022-10-30T21:35:21.189Z,72.60
2022-10-30T21:37:48.156Z,71.90
2022-10-30T21:40:15.188Z,71.70
2022-10-30T21:42:41.965Z,72.50
2022-10-30T21:45:09.361Z,74.40
2022-10-30T21:47:36.081Z,74.70
2022-10-30T21:50:06.134Z,80.50
2022-10-30T21:52:34.726Z,79.30
2022-10-30T21:55:01.478Z,78.00
2022-10-30T21:57:29.270Z,76.80
2022-10-30T21:59:58.801Z,74.40
2022-10-30T22:02:28.447Z,75.90
2022-10-30T22:04:55.255Z,73.20
2022-10-30T22:07:22.075Z,73.00
2022-10-30T22:09:48.814Z,73.70
2022-10-30T22:12:15.482Z,73.40
2022-10-30T22:14:42.194Z,74.00
2022-10-30T22:17:08.886Z,75.10
2022-10-30T22:19:35.705Z,75.60
2022-10-30T22:22:02.478Z,76.90
2022-10-30T22:24:29.310Z,81.40
2022-10-30T22:26:56.140Z,82.30
2022-10-30T22:29:22.903Z,78.30
2022-10-30T22:31:49.956Z,79.40
2022-10-30T22:34:16.704Z,78.50
2022-10-30T22:36:43.435Z,78.50
2022-10-30T22:39:13.763Z,79.20
2022-10-30T22:41:41.081Z,79.40
2022-10-30T22:44:11.910Z,81.90
2022-10-30T22:46:38.994Z,81.50
2022-10-30T22:49:06.600Z,83.80
2022-10-30T22:51:36.216Z,85.60
2022-10-30T22:54:05.823Z,86.10
2022-10-30T22:56:34.733Z,82.20
2022-10-30T22:59:06.483Z,80.40
2022-10-30T23:01:35.490Z,80.90
2022-10-30T23:04:03.822Z,79.00
2022-10-30T23:06:31.657Z,77.70
2022-10-30T23:09:00.731Z,79.10
2022-10-30T23:11:28.216Z,79.00
2022-10-30T23:13:55.591Z,79.90
2022-10-30T23:16:24.517Z,79.30
2022-10-30T23:18:53.524Z,78.00
2022-10-30T23:21:22.801Z,77.20
2022-10-30T23:23:50.060Z,79.20
2022-10-30T23:26:22.654Z,77.80
2022-10-30T23:28:51.484Z,78.40
2022-10-30T23:31:22.261Z,78.70
2022-10-30T23:33:50.698Z,81.50
2022-10-30T23:36:17.867Z,82.00
2022-10-30T23:38:44.853Z,86.40
2022-10-30T23:41:11.579Z,87.40
2022-10-30T23:43:38.293Z,85.40
2022-10-30T23:46:05.621Z,84.90
2022-10-30T23:48:32.291Z,84.50
2022-10-30T23:50:58.957Z,86.40
2022-10-30T23:53:25.698Z,85.20
2022-10-30T23:55:53.375Z,85.50
2022-10-30T23:58:20.801Z,86.00
